createdAt,value
2023-04-08T00:00:48.809Z,33.00
2023-04-08T00:03:16.479Z,30.83
2023-04-08T00:05:43.508Z,32.37
2023-04-08T00:08:10.397Z,34.07
2023-04-08T00:10:37.312Z,37.10
2023-04-08T00:13:04.188Z,34.40
2023-04-08T00:15:31.113Z,41.47
2023-04-08T00:17:58.325Z,30.03
2023-04-08T00:20:25.445Z,33.53
2023-04-08T00:22:52.554Z,30.07
2023-04-08T00:25:19.507Z,31.20
2023-04-08T00:27:46.442Z,26.67
2023-04-08T00:30:13.345Z,31.67
2023-04-08T00:32:40.239Z,24.63
2023-04-08T00:35:07.709Z,22.83
2023-04-08T00:37:35.119Z,27.70
2023-04-08T00:40:02.112Z,25.10
2023-04-08T00:42:30.813Z,27.87
2023-04-08T00:44:58.245Z,31.03
2023-04-08T00:47:25.825Z,21.70
2023-04-08T00:49:53.255Z,35.73
2023-04-08T00:52:20.264Z,35.20
2023-04-08T00:54:47.183Z,33.37
2023-04-08T00:57:14.261Z,31.03
2023-04-08T00:59:42.567Z,46.33
2023-04-08T01:02:32.003Z,31.30
2023-04-08T01:05:07.528Z,30.60
2023-04-08T01:07:44.790Z,33.03
2023-04-08T01:10:28.010Z,29.17
2023-04-08T01:12:58.400Z,33.33
2023-04-08T01:15:28.145Z,33.23
2023-04-08T01:17:57.453Z,45.23
2023-04-08T01:20:26.367Z,37.33
2023-04-08T01:23:52.363Z,32.33
2023-04-08T01:26:25.979Z,27.67
2023-04-08T01:29:01.074Z,30.40
2023-04-08T01:31:28.515Z,28.03
2023-04-08T01:34:00.730Z,30.00
2023-04-08T01:36:29.710Z,32.13
2023-04-08T01:38:56.908Z,28.37
2023-04-08T01:41:24.179Z,32.40
2023-04-08T01:43:53.137Z,32.57
2023-04-08T01:46:21.662Z,35.37
2023-04-08T01:48:50.051Z,43.67
2023-04-08T01:51:17.598Z,32.40
2023-04-08T01:53:44.487Z,34.83
2023-04-08T01:56:14.154Z,44.43
2023-04-08T01:58:52.730Z,39.20
2023-04-08T02:01:23.793Z,37.67
2023-04-08T02:03:55.575Z,32.23
2023-04-08T02:06:25.778Z,48.83
2023-04-08T02:08:53.590Z,25.80
2023-04-08T02:11:21.856Z,30.00
2023-04-08T02:13:49.225Z,30.10
2023-04-08T02:16:31.337Z,29.63
2023-04-08T02:19:12.103Z,40.57
2023-04-08T02:21:46.989Z,28.63
2023-04-08T02:24:15.509Z,34.07
2023-04-08T02:26:44.334Z,38.40
2023-04-08T02:29:15.753Z,26.87
2023-04-08T02:31:44.174Z,32.30
2023-04-08T02:34:12.038Z,32.30
2023-04-08T02:36:40.995Z,40.80
2023-04-08T02:39:07.921Z,30.73
2023-04-08T02:41:34.985Z,63.17
2023-04-08T02:44:01.892Z,30.73
2023-04-08T02:46:30.244Z,40.37
2023-04-08T02:48:57.138Z,41.90
2023-04-08T02:51:24.067Z,43.43
2023-04-08T02:53:51.107Z,42.00
2023-04-08T02:56:18.073Z,37.73
2023-04-08T02:58:44.941Z,32.00
2023-04-08T03:01:11.965Z,34.50
2023-04-08T03:03:39.384Z,42.80
2023-04-08T03:06:06.398Z,37.53
2023-04-08T03:08:33.732Z,35.20
2023-04-08T03:11:00.817Z,41.47
2023-04-08T03:13:29.633Z,42.57
2023-04-08T03:15:56.542Z,43.73
2023-04-08T03:18:24.444Z,28.43
2023-04-08T03:20:51.332Z,32.30
2023-04-08T03:23:18.205Z,33.10
2023-04-08T03:25:45.325Z,42.00
2023-04-08T03:28:12.202Z,32.83
2023-04-08T03:30:39.222Z,57.20
2023-04-08T03:33:08.129Z,31.97
2023-04-08T03:35:35.561Z,38.10
2023-04-08T03:38:02.483Z,30.33
2023-04-08T03:40:29.373Z,31.43
2023-04-08T03:42:56.239Z,36.57
2023-04-08T03:45:23.164Z,31.77
2023-04-08T03:47:50.104Z,34.47
2023-04-08T03:50:17.037Z,44.70
2023-04-08T03:52:43.910Z,38.53
2023-04-08T03:55:10.815Z,45.30
2023-04-08T03:57:37.750Z,38.67
2023-04-08T04:00:05.266Z,49.53
2023-04-08T04:02:39.288Z,32.40
2023-04-08T04:05:06.667Z,40.07
2023-04-08T04:07:33.558Z,45.00
2023-04-08T04:10:00.555Z,35.73
2023-04-08T04:12:27.457Z,39.83
2023-04-08T04:14:54.386Z,33.43
2023-04-08T04:17:21.248Z,46.20
2023-04-08T04:19:48.122Z,41.53
2023-04-08T04:22:15.060Z,52.00
2023-04-08T04:24:41.955Z,38.40
2023-04-08T04:27:08.831Z,43.83
2023-04-08T04:29:35.823Z,35.97
2023-04-08T04:32:02.733Z,48.57
2023-04-08T04:34:29.643Z,42.63
2023-04-08T04:36:56.678Z,43.77
2023-04-08T04:39:23.624Z,37.13
2023-04-08T04:41:50.830Z,65.30
2023-04-08T04:44:17.737Z,39.70
2023-04-08T04:46:44.705Z,39.53
2023-04-08T04:49:11.671Z,44.70
2023-04-08T04:51:38.571Z,43.10
2023-04-08T04:54:05.488Z,40.03
2023-04-08T04:56:32.369Z,43.57
2023-04-08T04:58:59.250Z,43.47
2023-04-08T05:01:26.445Z,37.80
2023-04-08T05:03:53.398Z,38.90
2023-04-08T05:06:20.336Z,46.67
2023-04-08T05:08:47.297Z,46.83
2023-04-08T05:11:14.245Z,53.50
2023-04-08T05:13:41.659Z,34.37
2023-04-08T05:16:08.660Z,47.23
2023-04-08T05:18:35.565Z,49.43
2023-04-08T05:21:03.077Z,43.00
2023-04-08T05:23:29.981Z,45.27
2023-04-08T05:25:57.068Z,45.70
2023-04-08T05:28:23.954Z,41.17
2023-04-08T05:30:51.571Z,53.13
2023-04-08T05:33:19.000Z,45.67
2023-04-08T05:35:46.632Z,47.50
2023-04-08T05:38:13.560Z,38.77
2023-04-08T05:40:40.497Z,38.70
2023-04-08T05:43:07.400Z,47.23
2023-04-08T05:45:34.290Z,44.30
2023-04-08T05:48:01.204Z,32.27
2023-04-08T05:50:28.126Z,36.17
2023-04-08T05:52:55.022Z,40.10
2023-04-08T05:55:22.140Z,36.93
2023-04-08T05:57:49.009Z,35.60
2023-04-08T06:00:16.939Z,36.40
2023-04-08T06:02:44.065Z,39.07
2023-04-08T06:05:11.172Z,47.40
2023-04-08T06:07:38.048Z,41.17
2023-04-08T06:10:07.108Z,35.73
2023-04-08T06:12:37.430Z,40.13
2023-04-08T06:15:05.944Z,32.90
2023-04-08T06:17:32.852Z,37.50
2023-04-08T06:20:01.886Z,59.70
2023-04-08T06:22:29.482Z,52.70
2023-04-08T06:24:56.566Z,41.13
2023-04-08T06:27:23.480Z,50.83
2023-04-08T06:29:50.875Z,42.63
2023-04-08T06:32:17.859Z,38.17
2023-04-08T06:34:46.039Z,44.77
2023-04-08T06:37:13.000Z,53.70
2023-04-08T06:39:39.925Z,39.00
2023-04-08T06:42:06.838Z,50.83
2023-04-08T06:44:53.335Z,30.77
2023-04-08T06:47:20.272Z,35.40
2023-04-08T06:49:47.437Z,54.50
2023-04-08T06:52:15.219Z,64.60
2023-04-08T06:54:42.273Z,60.63
2023-04-08T06:57:09.482Z,68.97
2023-04-08T06:59:36.439Z,43.50
2023-04-08T07:02:03.647Z,78.07
2023-04-08T07:04:30.805Z,48.53
2023-04-08T07:06:57.873Z,36.00
2023-04-08T07:09:24.776Z,40.23
2023-04-08T07:11:51.692Z,35.13
2023-04-08T07:14:19.627Z,39.43
2023-04-08T07:16:46.630Z,39.77
2023-04-08T07:19:13.593Z,41.87
2023-04-08T07:21:40.482Z,39.10
2023-04-08T07:24:07.500Z,42.17
2023-04-08T07:26:34.373Z,41.40
2023-04-08T07:29:01.273Z,43.13
2023-04-08T07:31:28.257Z,43.23
2023-04-08T07:33:55.314Z,37.63
2023-04-08T07:36:22.268Z,49.83
2023-04-08T07:38:49.360Z,34.67
2023-04-08T07:41:16.479Z,34.10
2023-04-08T07:43:43.464Z,37.23
2023-04-08T07:46:10.485Z,46.33
2023-04-08T07:48:37.439Z,42.57
2023-04-08T07:51:10.999Z,44.60
2023-04-08T07:53:40.372Z,35.90
2023-04-08T07:56:15.670Z,41.70
2023-04-08T07:58:43.071Z,41.70
2023-04-08T08:01:22.096Z,44.17
2023-04-08T08:03:51.270Z,40.33
2023-04-08T08:06:18.875Z,43.60
2023-04-08T08:08:45.861Z,39.40
2023-04-08T08:11:13.050Z,45.13
2023-04-08T08:13:39.976Z,41.60
2023-04-08T08:16:09.193Z,34.43
2023-04-08T08:18:36.901Z,40.37
2023-04-08T08:21:04.111Z,38.37
2023-04-08T08:23:31.081Z,50.57
2023-04-08T08:26:03.062Z,40.10
2023-04-08T08:28:29.965Z,43.33
2023-04-08T08:30:57.276Z,37.37
2023-04-08T08:33:25.513Z,48.87
2023-04-08T08:35:52.612Z,38.07
2023-04-08T08:38:19.535Z,32.90
2023-04-08T08:40:46.529Z,42.27
2023-04-08T08:43:14.491Z,44.73
2023-04-08T08:45:42.247Z,40.70
2023-04-08T08:48:09.573Z,44.43
2023-04-08T08:50:36.513Z,53.43
2023-04-08T08:53:03.659Z,44.47
2023-04-08T08:55:53.062Z,44.47
2023-04-08T08:58:20.744Z,56.33
2023-04-08T09:00:47.666Z,49.60
2023-04-08T09:03:16.733Z,44.80
2023-04-08T09:06:01.275Z,42.53
2023-04-08T09:08:28.064Z,46.07
2023-04-08T09:10:56.333Z,36.53
2023-04-08T09:13:24.783Z,54.90
2023-04-08T09:16:04.009Z,42.80
2023-04-08T09:18:32.394Z,39.70
2023-04-08T09:21:04.160Z,49.07
2023-04-08T09:23:49.869Z,48.23
2023-04-08T09:26:22.209Z,44.03
2023-04-08T09:29:25.388Z,48.13
2023-04-08T09:32:00.468Z,60.53
2023-04-08T09:34:29.694Z,34.37
2023-04-08T09:36:56.894Z,43.50
2023-04-08T09:39:24.163Z,43.73
2023-04-08T09:41:52.787Z,39.07
2023-04-08T09:44:24.707Z,36.87
2023-04-08T09:46:51.688Z,36.07
2023-04-08T09:49:46.940Z,33.30
2023-04-08T09:52:21.853Z,36.60
2023-04-08T09:55:00.621Z,33.03
2023-04-08T09:57:51.121Z,44.57
2023-04-08T10:00:19.224Z,33.63
2023-04-08T10:03:20.439Z,35.00
2023-04-08T10:05:48.819Z,34.90
2023-04-08T10:08:16.395Z,34.33
2023-04-08T10:10:44.074Z,36.53
2023-04-08T10:13:11.637Z,35.50
2023-04-08T10:15:40.871Z,29.13
2023-04-08T10:18:31.255Z,35.97
2023-04-08T10:20:58.130Z,29.27
2023-04-08T10:23:56.959Z,32.53
2023-04-08T10:26:36.746Z,40.13
2023-04-08T10:29:30.855Z,31.90
2023-04-08T10:31:57.929Z,35.10
2023-04-08T10:34:27.412Z,37.50
2023-04-08T10:36:56.855Z,35.27
2023-04-08T10:39:25.965Z,39.40
2023-04-08T10:41:52.939Z,43.87
2023-04-08T10:44:26.190Z,43.70
2023-04-08T10:46:54.209Z,24.40
2023-04-08T10:49:22.108Z,33.93
2023-04-08T10:51:49.351Z,23.77
2023-04-08T10:54:18.436Z,33.03
2023-04-08T10:56:53.562Z,48.00
2023-04-08T10:59:32.771Z,25.90
2023-04-08T11:02:01.239Z,26.23
2023-04-08T11:04:28.739Z,25.13
2023-04-08T11:06:55.729Z,22.40
2023-04-08T11:09:22.620Z,24.47
2023-04-08T11:11:49.510Z,27.13
2023-04-08T11:14:19.679Z,26.80
2023-04-08T11:16:46.592Z,22.40
2023-04-08T11:19:14.294Z,22.47
2023-04-08T11:21:41.510Z,25.33
2023-04-08T11:24:12.434Z,45.57
2023-04-08T11:26:40.518Z,23.80
2023-04-08T11:29:14.187Z,24.50
2023-04-08T11:31:42.893Z,26.53
2023-04-08T11:34:09.966Z,22.43
2023-04-08T11:36:36.966Z,20.37
2023-04-08T11:39:09.088Z,22.80
2023-04-08T11:41:43.270Z,20.80
2023-04-08T11:44:10.370Z,21.30
2023-04-08T11:46:37.816Z,27.57
2023-04-08T11:49:09.979Z,25.63
2023-04-08T11:51:56.469Z,25.80
2023-04-08T11:54:31.958Z,23.23
2023-04-08T11:56:59.915Z,24.00
2023-04-08T11:59:28.901Z,26.13
2023-04-08T12:01:56.383Z,20.00
2023-04-08T12:04:23.506Z,26.70
2023-04-08T12:06:50.712Z,28.03
2023-04-08T12:09:17.612Z,37.13
2023-04-08T12:11:44.552Z,29.33
2023-04-08T12:14:11.432Z,25.93
2023-04-08T12:16:38.496Z,27.70
2023-04-08T12:19:05.426Z,33.43
2023-04-08T12:21:33.877Z,35.20
2023-04-08T12:24:01.677Z,31.17
2023-04-08T12:26:28.605Z,31.13
2023-04-08T12:28:55.523Z,33.93
2023-04-08T12:31:23.119Z,35.40
2023-04-08T12:33:50.470Z,32.27
2023-04-08T12:36:17.630Z,32.57
2023-04-08T12:38:44.615Z,41.97
2023-04-08T12:41:11.500Z,35.70
2023-04-08T12:43:39.126Z,38.30
2023-04-08T12:46:06.391Z,34.50
2023-04-08T12:48:33.296Z,43.43
2023-04-08T12:51:00.252Z,34.37
2023-04-08T12:53:27.145Z,37.13
2023-04-08T12:55:57.147Z,37.17
2023-04-08T12:58:25.612Z,44.53
2023-04-08T13:00:52.527Z,45.77
2023-04-08T13:03:19.518Z,58.03
2023-04-08T13:05:46.853Z,46.23
2023-04-08T13:08:13.745Z,41.70
2023-04-08T13:10:42.511Z,55.70
2023-04-08T13:13:09.474Z,43.67
2023-04-08T13:15:36.920Z,42.53
2023-04-08T13:18:04.706Z,39.97
2023-04-08T13:20:31.645Z,39.90
2023-04-08T13:22:58.533Z,39.50
2023-04-08T13:25:25.563Z,40.73
2023-04-08T13:27:52.604Z,38.10
2023-04-08T13:30:19.564Z,38.23
2023-04-08T13:32:46.532Z,43.50
2023-04-08T13:35:13.462Z,44.73
2023-04-08T13:37:40.323Z,45.20
2023-04-08T13:40:08.747Z,45.50
2023-04-08T13:42:35.826Z,50.23
2023-04-08T13:45:02.796Z,44.87
2023-04-08T13:47:29.745Z,51.43
2023-04-08T13:49:56.646Z,43.00
2023-04-08T13:52:23.506Z,37.53
2023-04-08T13:54:50.429Z,36.00
2023-04-08T13:57:17.340Z,43.57
2023-04-08T13:59:44.889Z,41.23
2023-04-08T14:02:12.894Z,35.07
2023-04-08T14:04:40.271Z,44.77
2023-04-08T14:07:07.333Z,47.57
2023-04-08T14:09:34.318Z,47.27
2023-04-08T14:12:01.253Z,42.90
2023-04-08T14:14:28.291Z,40.00
2023-04-08T14:16:55.298Z,44.13
2023-04-08T14:19:22.276Z,38.97
2023-04-08T14:21:49.237Z,39.37
2023-04-08T14:24:16.311Z,38.27
2023-04-08T14:26:43.274Z,37.40
2023-04-08T14:29:10.237Z,42.40
2023-04-08T14:31:37.289Z,44.87
2023-04-08T14:34:04.487Z,39.13
2023-04-08T14:36:31.678Z,44.10
2023-04-08T14:38:59.459Z,41.00
2023-04-08T14:41:27.134Z,36.33
2023-04-08T14:43:54.062Z,46.00
2023-04-08T14:46:21.707Z,37.17
2023-04-08T14:48:48.980Z,59.87
2023-04-08T14:51:16.027Z,53.17
2023-04-08T14:53:42.948Z,42.23
2023-04-08T14:56:10.147Z,39.40
2023-04-08T14:58:37.092Z,40.83
2023-04-08T15:01:04.536Z,40.50
2023-04-08T15:03:31.674Z,40.47
2023-04-08T15:05:59.695Z,39.50
2023-04-08T15:08:26.742Z,39.30
2023-04-08T15:10:53.639Z,44.63
2023-04-08T15:13:20.551Z,45.97
2023-04-08T15:15:47.469Z,35.40
2023-04-08T15:18:14.392Z,43.80
2023-04-08T15:20:41.855Z,42.17
2023-04-08T15:23:08.865Z,46.37
2023-04-08T15:25:35.839Z,41.57
2023-04-08T15:28:02.834Z,49.53
2023-04-08T15:30:35.052Z,40.23
2023-04-08T15:33:05.239Z,36.47
2023-04-08T15:35:33.078Z,42.60
2023-04-08T15:38:00.794Z,41.83
2023-04-08T15:40:28.117Z,35.30
2023-04-08T15:42:55.062Z,45.47
2023-04-08T15:45:22.241Z,41.20
2023-04-08T15:47:49.224Z,39.67
2023-04-08T15:50:17.289Z,42.77
2023-04-08T15:52:44.563Z,49.17
2023-04-08T15:55:11.807Z,42.33
2023-04-08T15:57:38.792Z,38.00
2023-04-08T16:00:10.859Z,39.50
2023-04-08T16:02:40.919Z,37.23
2023-04-08T16:05:09.117Z,38.87
2023-04-08T16:07:36.224Z,39.60
2023-04-08T16:10:03.264Z,33.47
2023-04-08T16:12:30.365Z,32.37
2023-04-08T16:14:57.247Z,30.60
2023-04-08T16:17:24.262Z,37.30
2023-04-08T16:19:51.830Z,44.70
2023-04-08T16:22:18.937Z,39.40
2023-04-08T16:24:46.169Z,31.60
2023-04-08T16:27:13.046Z,37.67
2023-04-08T16:29:39.939Z,40.30
2023-04-08T16:32:07.226Z,47.33
2023-04-08T16:34:34.578Z,48.27
2023-04-08T16:37:01.464Z,41.00
2023-04-08T16:39:28.599Z,38.90
2023-04-08T16:41:55.498Z,36.10
2023-04-08T16:44:22.794Z,35.80
2023-04-08T16:46:49.688Z,42.33
2023-04-08T16:49:18.262Z,38.77
2023-04-08T16:51:45.389Z,40.70
2023-04-08T16:54:12.354Z,40.03
2023-04-08T16:56:44.213Z,45.07
2023-04-08T16:59:12.251Z,43.23
2023-04-08T17:01:39.221Z,38.43
2023-04-08T17:04:06.284Z,41.43
2023-04-08T17:06:35.653Z,34.87
2023-04-08T17:09:03.950Z,37.93
2023-04-08T17:11:31.132Z,42.93
2023-04-08T17:13:58.110Z,39.87
2023-04-08T17:16:25.375Z,38.47
2023-04-08T17:18:52.437Z,40.87
2023-04-08T17:21:20.159Z,39.73
2023-04-08T17:23:47.126Z,42.60
2023-04-08T17:26:14.006Z,45.17
2023-04-08T17:28:40.892Z,41.93
2023-04-08T17:31:07.799Z,40.53
2023-04-08T17:33:34.696Z,39.70
2023-04-08T17:36:01.646Z,42.40
2023-04-08T17:38:28.926Z,36.33
2023-04-08T17:40:55.817Z,41.10
2023-04-08T17:43:22.699Z,38.73
2023-04-08T17:45:50.505Z,42.67
2023-04-08T17:48:18.686Z,36.77
2023-04-08T17:50:45.582Z,41.27
2023-04-08T17:53:12.444Z,40.87
2023-04-08T17:55:39.374Z,37.33
2023-04-08T17:58:06.291Z,36.90
2023-04-08T18:00:33.178Z,37.07
2023-04-08T18:03:00.230Z,49.57
2023-04-08T18:05:27.305Z,43.17
2023-04-08T18:07:54.187Z,55.50
2023-04-08T18:10:22.996Z,50.40
2023-04-08T18:12:50.819Z,47.40
2023-04-08T18:15:21.990Z,50.53
2023-04-08T18:17:48.940Z,46.63
2023-04-08T18:20:16.046Z,42.13
2023-04-08T18:22:43.065Z,38.07
2023-04-08T18:25:10.157Z,35.47
2023-04-08T18:27:37.053Z,43.67
2023-04-08T18:30:04.293Z,50.40
2023-04-08T18:32:31.200Z,34.80
2023-04-08T18:34:58.090Z,45.47
2023-04-08T18:37:25.077Z,45.30
2023-04-08T18:39:52.000Z,45.07
2023-04-08T18:42:18.951Z,49.50
2023-04-08T18:44:46.065Z,54.70
2023-04-08T18:47:13.118Z,50.50
2023-04-08T18:49:40.071Z,57.57
2023-04-08T18:52:08.296Z,47.10
2023-04-08T18:54:35.787Z,51.13
2023-04-08T18:57:02.957Z,51.50
2023-04-08T18:59:30.324Z,47.57
2023-04-08T19:01:57.637Z,44.33
2023-04-08T19:04:24.836Z,46.87
2023-04-08T19:06:51.769Z,55.80
2023-04-08T19:09:19.210Z,46.53
2023-04-08T19:11:46.146Z,52.53
2023-04-08T19:14:13.079Z,58.50
2023-04-08T19:16:41.651Z,59.40
2023-04-08T19:19:08.991Z,49.87
2023-04-08T19:21:37.698Z,40.10
2023-04-08T19:24:06.363Z,46.40
2023-04-08T19:26:33.787Z,43.23
2023-04-08T19:29:01.224Z,48.33
2023-04-08T19:31:28.271Z,46.97
2023-04-08T19:33:55.333Z,45.53
2023-04-08T19:36:22.227Z,52.53
2023-04-08T19:38:49.127Z,46.87
2023-04-08T19:41:16.046Z,48.20
2023-04-08T19:43:42.931Z,44.80
2023-04-08T19:46:09.830Z,42.27
2023-04-08T19:48:36.738Z,43.90
2023-04-08T19:51:03.738Z,34.43
2023-04-08T19:53:30.775Z,37.80
2023-04-08T19:56:02.019Z,35.93
2023-04-08T19:58:29.012Z,37.67
2023-04-08T20:00:56.946Z,42.30
2023-04-08T20:03:24.078Z,45.77
2023-04-08T20:05:51.110Z,41.10
2023-04-08T20:08:18.012Z,46.40
2023-04-08T20:10:45.004Z,50.73
2023-04-08T20:13:11.937Z,51.43
2023-04-08T20:15:38.795Z,60.23
2023-04-08T20:18:05.682Z,49.93
2023-04-08T20:20:32.660Z,45.93
2023-04-08T20:22:59.571Z,40.97
2023-04-08T20:25:26.584Z,43.50
2023-04-08T20:27:53.533Z,44.43
2023-04-08T20:30:20.397Z,43.50
2023-04-08T20:32:47.312Z,44.93
2023-04-08T20:35:14.312Z,44.30
2023-04-08T20:37:41.860Z,38.83
2023-04-08T20:40:09.405Z,39.23
2023-04-08T20:42:36.495Z,42.60
2023-04-08T20:45:03.767Z,40.13
2023-04-08T20:47:30.746Z,34.33
2023-04-08T20:49:57.667Z,37.57
2023-04-08T20:52:24.533Z,35.33
2023-04-08T20:54:51.423Z,41.93
2023-04-08T20:57:18.342Z,38.73
2023-04-08T20:59:45.300Z,31.83
2023-04-08T21:02:12.245Z,32.53
2023-04-08T21:04:39.808Z,26.27
2023-04-08T21:07:06.676Z,33.03
2023-04-08T21:09:33.595Z,33.60
2023-04-08T21:12:01.237Z,29.23
2023-04-08T21:14:30.961Z,31.03
2023-04-08T21:16:58.422Z,28.23
2023-04-08T21:19:25.339Z,31.03
2023-04-08T21:21:52.219Z,25.50
2023-04-08T21:24:19.103Z,30.37
2023-04-08T21:26:46.004Z,30.33
2023-04-08T21:29:12.934Z,23.03
2023-04-08T21:31:40.952Z,27.87
2023-04-08T21:34:08.371Z,33.33
2023-04-08T21:36:35.269Z,28.33
2023-04-08T21:39:02.319Z,28.60
2023-04-08T21:41:30.577Z,26.67
2023-04-08T21:43:57.746Z,25.97
2023-04-08T21:46:24.713Z,25.40
2023-04-08T21:48:52.092Z,25.87
2023-04-08T21:51:19.271Z,37.03
2023-04-08T21:53:46.283Z,25.80
2023-04-08T21:56:13.990Z,27.43
2023-04-08T21:58:41.098Z,28.93
2023-04-08T22:01:08.144Z,26.87
2023-04-08T22:03:35.233Z,21.97
2023-04-08T22:06:02.184Z,26.40
2023-04-08T22:08:29.086Z,24.20
2023-04-08T22:10:56.013Z,27.20
2023-04-08T22:13:22.919Z,28.67
2023-04-08T22:15:49.782Z,28.60
2023-04-08T22:18:16.666Z,26.50
2023-04-08T22:20:43.542Z,28.87
2023-04-08T22:23:10.435Z,29.90
2023-04-08T22:25:37.300Z,23.70
2023-04-08T22:28:04.204Z,25.17
2023-04-08T22:30:31.176Z,27.53
2023-04-08T22:32:58.239Z,27.33
2023-04-08T22:35:25.167Z,23.93
2023-04-08T22:37:52.166Z,32.83
2023-04-08T22:40:19.060Z,29.53
2023-04-08T22:42:45.929Z,40.17
2023-04-08T22:45:12.796Z,38.60
2023-04-08T22:47:39.726Z,29.40
2023-04-08T22:50:07.179Z,32.33
2023-04-08T22:52:34.064Z,29.40
2023-04-08T22:55:00.974Z,29.33
2023-04-08T22:57:27.947Z,24.73
2023-04-08T22:59:54.818Z,38.07
2023-04-08T23:02:21.865Z,29.97
2023-04-08T23:04:53.430Z,32.87
2023-04-08T23:07:20.383Z,27.10
2023-04-08T23:09:47.256Z,28.70
2023-04-08T23:12:14.230Z,26.60
2023-04-08T23:14:41.097Z,27.03
2023-04-08T23:17:07.983Z,30.17
2023-04-08T23:19:34.850Z,27.37
2023-04-08T23:22:01.737Z,28.40
2023-04-08T23:24:28.618Z,27.10
2023-04-08T23:26:56.240Z,27.53
2023-04-08T23:29:23.203Z,29.33
2023-04-08T23:31:50.198Z,32.80
2023-04-08T23:34:17.061Z,28.83
2023-04-08T23:36:43.964Z,31.63
2023-04-08T23:39:10.945Z,31.57
2023-04-08T23:41:37.821Z,30.20
2023-04-08T23:44:04.747Z,28.47
2023-04-08T23:46:31.706Z,29.20
2023-04-08T23:48:58.591Z,35.60
2023-04-08T23:51:26.566Z,27.60
2023-04-08T23:53:53.444Z,27.57
2023-04-08T23:56:20.641Z,35.40
2023-04-08T23:58:47.511Z,33.53
